createdAt,value
2022-09-05T00:00:42.464Z,101008.53
2022-09-05T00:01:50.717Z,101004.06
2022-09-05T00:03:11.014Z,101005.47
2022-09-05T00:04:24.363Z,100997.41
2022-09-05T00:06:02.503Z,101002.47
2022-09-05T00:07:37.447Z,101000.78
2022-09-05T00:09:02.305Z,101003.03
2022-09-05T00:10:35.844Z,100997.44
2022-09-05T00:11:44.086Z,101007.22
2022-09-05T00:12:48.273Z,101003.59
2022-09-05T00:14:34.149Z,100998.31
2022-09-05T00:16:02.136Z,101000.25
2022-09-05T00:18:09.514Z,100998.59
2022-09-05T00:24:22.172Z,100998.06
2022-09-05T00:24:23.276Z,101001.16
2022-09-05T00:24:31.788Z,100999.75
2022-09-05T00:24:36.937Z,101006.16
2022-09-05T00:25:31.848Z,100995.31
2022-09-05T00:26:53.151Z,101000.31
2022-09-05T00:28:02.057Z,100992.25
2022-09-05T00:31:05.319Z,100992.53
2022-09-05T00:31:54.778Z,100990.03
2022-09-05T00:33:17.986Z,100994.78
2022-09-05T00:34:47.087Z,100991.16
2022-09-05T00:36:23.218Z,100997.03
2022-09-05T00:37:39.627Z,100992.56
2022-09-05T00:38:51.901Z,100992.56
2022-09-05T00:40:18.711Z,100994.81
2022-09-05T00:41:22.389Z,100993.97
2022-09-05T00:42:25.382Z,100994.28
2022-09-05T00:43:29.462Z,100992.59
2022-09-05T00:44:34.934Z,100992.59
2022-09-05T00:45:53.305Z,100996.50
2022-09-05T00:47:11.028Z,100990.41
2022-09-05T00:48:33.919Z,100990.41
2022-09-05T00:49:53.789Z,100994.84
2022-09-05T00:51:29.291Z,100984.81
2022-09-05T00:52:50.542Z,100996.78
2022-09-05T00:54:40.661Z,100998.75
2022-09-05T00:56:04.460Z,100997.09
2022-09-05T00:57:09.418Z,100999.88
2022-09-05T00:58:59.201Z,100996.53
2022-09-05T01:00:26.520Z,100996.53
2022-09-05T01:01:45.798Z,100994.84
2022-09-05T01:03:10.129Z,101001.59
2022-09-05T01:04:39.514Z,101003.53
2022-09-05T01:06:02.142Z,101003.81
2022-09-05T01:07:13.161Z,100996.56
2022-09-05T01:08:41.516Z,100999.34
2022-09-05T01:10:04.897Z,101001.59
2022-09-05T01:11:32.719Z,101000.75
2022-09-05T01:12:55.242Z,101011.09
2022-09-05T01:14:26.476Z,101002.72
2022-09-05T01:15:32.715Z,101002.16
2022-09-05T01:17:02.727Z,101001.34
2022-09-05T01:18:25.561Z,101002.44
2022-09-05T01:19:50.432Z,101001.63
2022-09-05T01:21:15.246Z,100995.50
2022-09-05T01:22:35.143Z,101001.06
2022-09-05T01:23:49.394Z,101003.03
2022-09-05T01:25:12.096Z,101003.03
2022-09-05T01:26:38.956Z,101008.91
2022-09-05T01:29:13.246Z,101005.25
2022-09-05T01:29:46.053Z,101002.72
2022-09-05T01:30:55.750Z,101003.84
2022-09-05T01:32:19.797Z,101004.97
2022-09-05T01:33:38.639Z,100998.56
2022-09-05T01:35:18.038Z,101002.75
2022-09-05T01:36:26.858Z,101013.09
2022-09-05T01:37:54.239Z,101013.38
2022-09-05T01:40:12.149Z,101016.44
2022-09-05T01:40:49.651Z,101007.53
2022-09-05T01:42:31.701Z,101017.00
2022-09-05T01:44:02.179Z,101012.00
2022-09-05T01:45:20.784Z,101009.22
2022-09-05T01:46:39.401Z,101013.66
2022-09-05T01:48:05.080Z,101006.69
2022-09-05T01:49:26.225Z,101016.22
2022-09-05T01:51:06.710Z,101013.69
2022-09-05T01:53:00.321Z,101011.19
2022-09-05T01:54:24.632Z,101010.34
2022-09-05T01:56:04.074Z,101007.00
2022-09-05T01:57:24.760Z,101011.75
2022-09-05T01:58:54.013Z,101015.09
2022-09-05T02:00:07.672Z,101010.66
2022-09-05T02:01:41.739Z,101018.16
2022-09-05T02:03:02.828Z,101023.22
2022-09-05T02:04:26.347Z,101019.03
2022-09-05T02:05:57.103Z,101018.47
2022-09-05T02:07:30.992Z,101022.66
2022-09-05T02:09:19.872Z,101019.06
2022-09-05T02:10:40.768Z,101015.69
2022-09-05T02:12:07.177Z,101016.00
2022-09-05T02:13:30.928Z,101017.94
2022-09-05T02:14:41.023Z,101017.38
2022-09-05T02:15:59.381Z,101016.56
2022-09-05T02:17:25.855Z,101015.72
2022-09-05T02:18:54.286Z,101019.63
2022-09-05T02:20:14.605Z,101020.75
2022-09-05T02:21:56.908Z,101016.28
2022-09-05T02:23:40.459Z,101014.63
2022-09-05T02:24:41.382Z,101016.84
2022-09-05T02:26:02.088Z,101017.97
2022-09-05T02:27:53.503Z,101019.09
2022-09-05T02:28:55.334Z,101010.16
2022-09-05T02:30:22.282Z,101016.88
2022-09-05T02:31:40.738Z,101009.63
2022-09-05T02:32:52.373Z,101024.66
2022-09-05T02:34:01.770Z,101017.41
2022-09-05T02:35:31.505Z,101017.69
2022-09-05T02:37:00.771Z,101005.75
2022-09-05T02:39:09.207Z,101019.66
2022-09-05T02:45:02.810Z,101012.41
2022-09-05T02:45:05.998Z,101016.59
2022-09-05T02:45:14.075Z,101019.38
2022-09-05T02:45:14.651Z,101015.50
2022-09-05T02:46:08.610Z,101018.53
2022-09-05T02:47:23.553Z,101018.00
2022-09-05T02:48:50.128Z,101020.78
2022-09-05T02:53:19.706Z,101015.75
2022-09-05T02:57:24.732Z,101009.66
2022-09-05T02:57:26.790Z,101009.66
2022-09-05T02:57:37.439Z,101005.19
2022-09-05T02:57:38.163Z,101002.97
2022-09-05T02:58:12.626Z,101001.28
2022-09-05T02:59:57.217Z,101004.09
2022-09-05T03:01:23.891Z,101001.00
2022-09-05T03:03:00.863Z,101002.13
2022-09-05T03:04:12.116Z,101003.25
2022-09-05T03:05:24.028Z,101004.66
2022-09-05T03:06:40.780Z,101004.09
2022-09-05T03:08:11.961Z,101007.16
2022-09-05T03:09:43.219Z,101001.88
2022-09-05T03:11:07.008Z,101007.66
2022-09-05T03:12:34.939Z,101007.13
2022-09-05T03:14:05.018Z,101013.81
2022-09-05T03:15:19.368Z,101006.84
2022-09-05T03:17:02.853Z,101005.16
2022-09-05T03:18:29.293Z,101004.91
2022-09-05T03:20:06.557Z,101001.56
2022-09-05T03:21:39.772Z,101001.00
2022-09-05T03:23:03.945Z,101002.38
2022-09-05T03:24:40.576Z,100997.94
2022-09-05T03:26:19.689Z,100998.50
2022-09-05T03:27:29.227Z,101000.75
2022-09-05T03:29:03.431Z,101002.94
2022-09-05T03:30:19.082Z,101002.13
2022-09-05T03:31:46.265Z,101006.84
2022-09-05T03:33:08.666Z,101004.34
2022-09-05T03:34:43.310Z,101004.63
2022-09-05T03:36:23.682Z,101009.38
2022-09-05T03:37:44.459Z,101008.78
2022-09-05T03:38:49.727Z,101005.19
2022-09-05T03:40:18.643Z,101011.00
2022-09-05T03:41:40.582Z,101015.75
2022-09-05T03:43:07.136Z,101016.03
2022-09-05T03:44:23.387Z,101010.75
2022-09-05T03:45:45.726Z,101013.78
2022-09-05T03:47:04.004Z,101022.13
2022-09-05T03:48:28.029Z,101014.91
2022-09-05T03:53:14.658Z,101006.81
2022-09-05T03:57:07.577Z,101017.41
2022-09-05T03:57:13.716Z,101014.91
2022-09-05T03:57:14.835Z,101013.25
2022-09-05T03:57:15.713Z,101015.75
2022-09-05T03:58:41.947Z,101006.56
2022-09-05T04:00:13.424Z,101012.13
2022-09-05T04:03:32.972Z,101015.19
2022-09-05T04:05:40.351Z,101013.50
2022-09-05T04:08:15.724Z,101019.59
2022-09-05T04:08:15.798Z,101017.69
2022-09-05T04:08:17.617Z,101022.66
2022-09-05T04:09:49.680Z,101019.34
2022-09-05T04:10:57.192Z,101022.13
2022-09-05T04:12:20.800Z,101016.00
2022-09-05T04:13:37.768Z,101017.94
2022-09-05T04:15:02.785Z,101021.84
2022-09-05T04:16:16.874Z,101027.69
2022-09-05T04:17:31.735Z,101020.16
2022-09-05T04:18:39.208Z,101017.66
2022-09-05T04:19:49.078Z,101020.72
2022-09-05T04:21:01.607Z,101015.16
2022-09-05T04:22:27.825Z,101017.06
2022-09-05T04:23:48.250Z,101019.03
2022-09-05T04:25:14.159Z,101026.53
2022-09-05T04:26:46.449Z,101022.91
2022-09-05T04:27:48.596Z,101020.41
2022-09-05T04:29:00.001Z,101022.34
2022-09-05T04:30:39.462Z,101022.34
2022-09-05T04:32:15.463Z,101023.47
2022-09-05T04:33:33.482Z,101022.63
2022-09-05T04:35:10.193Z,101026.25
2022-09-05T04:36:23.874Z,101032.94
2022-09-05T04:37:49.537Z,101024.88
2022-09-05T04:39:17.954Z,101023.19
2022-09-05T04:40:42.575Z,101025.97
2022-09-05T04:41:49.916Z,101026.78
2022-09-05T04:42:52.229Z,101027.06
2022-09-05T04:44:07.980Z,101026.25
2022-09-05T04:45:24.047Z,101029.84
2022-09-05T04:46:48.288Z,101032.63
2022-09-05T04:47:54.256Z,101031.53
2022-09-05T04:49:11.894Z,101027.06
2022-09-05T04:50:23.499Z,101029.03
2022-09-05T04:52:00.862Z,101030.72
2022-09-05T04:53:37.478Z,101029.03
2022-09-05T04:54:47.298Z,101035.41
2022-09-05T04:55:55.927Z,101032.63
2022-09-05T04:57:24.303Z,101033.50
2022-09-05T05:00:04.178Z,101037.91
2022-09-05T05:05:59.561Z,101032.09
2022-09-05T05:06:02.224Z,101037.66
2022-09-05T05:06:11.394Z,101038.22
2022-09-05T05:06:16.466Z,101037.13
2022-09-05T05:06:23.354Z,101040.44
2022-09-05T05:07:22.583Z,101040.19
2022-09-05T05:08:38.148Z,101037.94
2022-09-05T05:11:01.131Z,101046.88
2022-09-05T05:17:56.225Z,101048.56
2022-09-05T05:17:57.610Z,101045.22
2022-09-05T05:18:08.469Z,101051.38
2022-09-05T05:18:12.356Z,101052.47
2022-09-05T05:18:38.700Z,101050.81
2022-09-05T05:19:35.314Z,101045.25
2022-09-05T05:20:56.834Z,101046.09
2022-09-05T05:22:03.399Z,101047.47
2022-09-05T05:23:09.614Z,101045.00
2022-09-05T05:24:21.800Z,101054.16
2022-09-05T05:25:25.374Z,101056.97
2022-09-05T05:26:48.247Z,101049.47
2022-09-05T05:28:23.934Z,101047.22
2022-09-05T05:29:39.386Z,101054.50
2022-09-05T05:30:41.975Z,101054.50
2022-09-05T05:31:54.505Z,101057.00
2022-09-05T05:33:00.522Z,101053.38
2022-09-05T05:34:24.793Z,101053.13
2022-09-05T05:35:33.562Z,101063.69
2022-09-05T05:36:55.254Z,101061.44
2022-09-05T05:38:25.246Z,101058.91
2022-09-05T05:39:29.985Z,101057.50
2022-09-05T05:40:39.700Z,101064.75
2022-09-05T05:41:55.545Z,101063.03
2022-09-05T05:43:19.070Z,101062.19
2022-09-05T05:44:35.355Z,101062.41
2022-09-05T05:45:37.812Z,101057.94
2022-09-05T05:46:44.624Z,101062.09
2022-09-05T05:47:50.676Z,101053.69
2022-09-05T05:49:04.006Z,101063.97
2022-09-05T05:50:11.518Z,101059.47
2022-09-05T05:52:02.011Z,101061.91
2022-09-05T05:53:33.618Z,101058.72
2022-09-05T05:55:50.752Z,101068.69
2022-09-05T05:57:14.810Z,101065.19
2022-09-05T05:58:48.259Z,101064.53
2022-09-05T06:00:04.150Z,101068.00
2022-09-05T06:01:56.772Z,101058.66
2022-09-05T06:03:28.203Z,101062.97
2022-09-05T06:05:07.445Z,101051.59
2022-09-05T06:06:34.816Z,101053.34
2022-09-05T06:10:39.065Z,101054.53
2022-09-05T06:14:51.311Z,101059.00
2022-09-05T06:15:01.052Z,101057.06
2022-09-05T06:15:03.669Z,101061.00
2022-09-05T06:15:53.064Z,101063.19
2022-09-05T06:17:08.507Z,101055.88
2022-09-05T06:18:28.147Z,101059.56
2022-09-05T06:19:51.796Z,101056.81
2022-09-05T06:22:06.238Z,101058.47
2022-09-05T06:23:20.270Z,101050.50
2022-09-05T06:25:17.365Z,101058.50
2022-09-05T06:26:45.941Z,101049.16
2022-09-05T06:28:19.002Z,101056.09
2022-09-05T06:29:38.175Z,101061.38
2022-09-05T06:30:57.191Z,101057.34
2022-09-05T06:32:37.595Z,101062.03
2022-09-05T06:34:04.104Z,101056.31
2022-09-05T06:35:21.319Z,101070.00
2022-09-05T06:36:45.429Z,101062.13
2022-09-05T06:37:56.887Z,101055.59
2022-09-05T06:39:37.164Z,101060.34
2022-09-05T06:41:00.774Z,101063.06
2022-09-05T06:42:30.715Z,101059.13
2022-09-05T06:44:13.674Z,101060.34
2022-09-05T06:45:28.485Z,101068.16
2022-09-05T06:46:43.807Z,101061.91
2022-09-05T06:48:44.493Z,101065.94
2022-09-05T06:50:21.724Z,101059.66
2022-09-05T06:51:48.038Z,101060.97
2022-09-05T06:53:25.936Z,101057.19
2022-09-05T06:55:00.108Z,101057.88
2022-09-05T06:56:25.945Z,101064.84
2022-09-05T06:57:56.553Z,101063.34
2022-09-05T06:59:26.103Z,101069.97
2022-09-05T07:00:35.570Z,101063.16
2022-09-05T07:02:00.245Z,101062.28
2022-09-05T07:03:22.754Z,101067.22
2022-09-05T07:05:37.203Z,101057.63
2022-09-05T07:06:52.378Z,101062.56
2022-09-05T07:07:57.984Z,101070.31
2022-09-05T07:09:46.551Z,101061.09
2022-09-05T07:11:16.767Z,101067.03
2022-09-05T07:13:11.033Z,101069.47
2022-09-05T07:14:25.738Z,101067.94
2022-09-05T07:15:52.806Z,101072.25
2022-09-05T07:17:05.829Z,101065.22
2022-09-05T07:18:19.170Z,101067.50
2022-09-05T07:19:49.398Z,101073.06
2022-09-05T07:21:26.312Z,101067.84
2022-09-05T07:23:47.835Z,101072.97
2022-09-05T07:24:53.742Z,101063.56
2022-09-05T07:25:56.486Z,101075.19
2022-09-05T07:27:00.180Z,101079.44
2022-09-05T07:28:28.861Z,101073.56
2022-09-05T07:29:36.591Z,101068.91
2022-09-05T07:30:46.847Z,101073.16
2022-09-05T07:31:53.025Z,101076.59
2022-09-05T07:32:58.533Z,101076.41
2022-09-05T07:34:21.085Z,101074.97
2022-09-05T07:35:29.437Z,101077.59
2022-09-05T07:36:47.015Z,101079.03
2022-09-05T07:38:01.031Z,101068.34
2022-09-05T07:39:27.835Z,101076.59
2022-09-05T07:40:30.098Z,101084.88
2022-09-05T07:41:39.555Z,101081.81
2022-09-05T07:42:55.736Z,101085.00
2022-09-05T07:44:18.146Z,101084.28
2022-09-05T07:45:28.443Z,101076.66
2022-09-05T07:46:38.877Z,101077.09
2022-09-05T07:47:53.105Z,101071.94
2022-09-05T07:49:02.884Z,101074.41
2022-09-05T07:51:59.196Z,101078.53
2022-09-05T07:56:48.918Z,101075.03
2022-09-05T07:56:55.223Z,101073.00
2022-09-05T07:56:56.542Z,101071.13
2022-09-05T07:57:06.155Z,101057.53
2022-09-05T07:57:50.616Z,101069.00
2022-09-05T07:58:54.632Z,101058.59
2022-09-05T08:00:06.537Z,101057.06
2022-09-05T08:01:16.871Z,101058.38
2022-09-05T08:02:19.859Z,101052.69
2022-09-05T08:03:29.288Z,101053.19
2022-09-05T08:04:34.529Z,101057.69
2022-09-05T08:05:47.254Z,101059.34
2022-09-05T08:07:46.045Z,101056.97
2022-09-05T08:08:20.907Z,101051.81
2022-09-05T08:10:05.875Z,101053.09
2022-09-05T08:11:23.834Z,101048.63
2022-09-05T08:13:22.780Z,101053.56
2022-09-05T08:14:44.651Z,101049.56
2022-09-05T08:16:13.824Z,101050.84
2022-09-05T08:17:30.007Z,101050.13
2022-09-05T08:18:51.443Z,101046.59
2022-09-05T08:20:10.025Z,101048.25
2022-09-05T08:21:27.762Z,101047.53
2022-09-05T08:22:38.152Z,101050.50
2022-09-05T08:24:14.375Z,101048.59
2022-09-05T08:25:57.047Z,101047.41
2022-09-05T08:27:23.894Z,101047.88
2022-09-05T08:28:37.634Z,101055.91
2022-09-05T08:29:46.171Z,101049.88
2022-09-05T08:31:00.106Z,101041.84
2022-09-05T08:32:28.664Z,101047.16
2022-09-05T08:33:36.109Z,101047.25
2022-09-05T08:34:44.611Z,101046.56
2022-09-05T08:36:01.003Z,101049.84
2022-09-05T08:37:05.423Z,101050.31
2022-09-05T08:38:08.943Z,101046.41
2022-09-05T08:39:13.016Z,101043.22
2022-09-05T08:40:37.307Z,101046.16
2022-09-05T08:42:05.948Z,101046.28
2022-09-05T08:45:50.669Z,101044.06
2022-09-05T08:46:40.904Z,101047.34
2022-09-05T08:46:48.702Z,101044.16
2022-09-05T08:48:16.898Z,101042.59
2022-09-05T08:49:39.493Z,101032.91
2022-09-05T08:51:08.780Z,101037.41
2022-09-05T08:52:13.578Z,101030.19
2022-09-05T08:53:49.992Z,101033.13
2022-09-05T08:55:07.392Z,101038.06
2022-09-05T08:56:38.597Z,101042.19
2022-09-05T08:57:46.824Z,101030.84
2022-09-05T08:59:27.948Z,101028.94
2022-09-05T09:00:24.361Z,101027.75
2022-09-05T09:02:46.660Z,101027.38
2022-09-05T09:03:52.055Z,101022.63
2022-09-05T09:05:14.372Z,101022.75
2022-09-05T09:07:23.492Z,101032.06
2022-09-05T09:08:48.578Z,101021.69
2022-09-05T09:10:22.790Z,101021.75
2022-09-05T09:11:41.061Z,101025.06
2022-09-05T09:13:11.899Z,101020.19
2022-09-05T09:14:35.978Z,101022.97
2022-09-05T09:15:47.130Z,101031.09
2022-09-05T09:17:20.658Z,101018.47
2022-09-05T09:18:36.968Z,101027.78
2022-09-05T09:19:46.413Z,101026.13
2022-09-05T09:20:55.705Z,101024.16
2022-09-05T09:22:03.717Z,101017.63
2022-09-05T09:23:08.532Z,101026.13
2022-09-05T09:25:15.436Z,101025.81
2022-09-05T09:26:17.058Z,101022.13
2022-09-05T09:28:48.034Z,101018.09
2022-09-05T09:29:08.821Z,101024.59
2022-09-05T09:30:13.794Z,101025.88
2022-09-05T09:31:29.056Z,101017.84
2022-09-05T09:32:43.718Z,101019.94
2022-09-05T09:34:08.667Z,101020.84
2022-09-05T09:35:20.358Z,101021.00
2022-09-05T09:36:38.769Z,101026.78
2022-09-05T09:38:12.014Z,101021.63
2022-09-05T09:39:39.278Z,101024.22
2022-09-05T09:41:12.603Z,101017.88
2022-09-05T09:42:51.053Z,101020.47
2022-09-05T09:44:09.447Z,101020.66
2022-09-05T09:45:38.889Z,101016.69
2022-09-05T09:46:44.381Z,101023.31
2022-09-05T09:47:59.144Z,101023.03
2022-09-05T09:49:23.134Z,101018.66
2022-09-05T09:50:41.950Z,101015.91
2022-09-05T09:52:26.176Z,101018.41
2022-09-05T09:53:37.566Z,101023.34
2022-09-05T09:55:41.154Z,101017.75
2022-09-05T09:57:21.871Z,101010.94
2022-09-05T09:58:36.797Z,101010.22
2022-09-05T10:00:06.043Z,101013.50
2022-09-05T10:01:36.385Z,100998.09
2022-09-05T10:10:33.590Z,101011.94
2022-09-05T10:10:35.683Z,101001.84
2022-09-05T10:10:45.543Z,100994.16
2022-09-05T10:10:48.646Z,101005.16
2022-09-05T10:10:51.343Z,100997.44
2022-09-05T10:11:55.044Z,100999.47
2022-09-05T10:13:10.807Z,101002.69
2022-09-05T10:14:50.646Z,101001.84
2022-09-05T10:16:27.528Z,100997.81
2022-09-05T10:17:48.703Z,101005.16
2022-09-05T10:18:56.682Z,100995.78
2022-09-05T10:20:29.412Z,100999.47
2022-09-05T10:23:44.773Z,100995.06
2022-09-05T10:25:12.165Z,100992.66
2022-09-05T10:26:33.178Z,100980.47
2022-09-05T10:27:49.848Z,100983.75
2022-09-05T10:29:11.780Z,100980.91
2022-09-05T10:31:58.588Z,100981.38
2022-09-05T10:35:10.678Z,100977.34
2022-09-05T10:35:23.379Z,100973.75
2022-09-05T10:35:24.590Z,100977.06
2022-09-05T10:36:31.979Z,100977.88
2022-09-05T10:37:51.436Z,100978.34
2022-09-05T10:39:15.399Z,100968.97
2022-09-05T10:40:26.917Z,100973.47
2022-09-05T10:41:44.725Z,100966.97
2022-09-05T10:42:59.931Z,100975.03
2022-09-05T10:44:05.526Z,100970.53
2022-09-05T10:45:16.656Z,100972.56
2022-09-05T10:46:49.587Z,100968.91
2022-09-05T10:48:17.087Z,100964.41
2022-09-05T10:49:27.056Z,100965.59
2022-09-05T10:51:26.979Z,100961.56
2022-09-05T10:52:39.875Z,100964.41
2022-09-05T10:53:51.239Z,100961.94
2022-09-05T10:55:14.689Z,100953.78
2022-09-05T10:56:26.128Z,100961.88
2022-09-05T10:57:56.895Z,100952.88
2022-09-05T11:00:59.398Z,100956.94
2022-09-05T11:02:27.668Z,100949.59
2022-09-05T11:02:46.205Z,100953.16
2022-09-05T11:04:00.648Z,100950.69
2022-09-05T11:05:30.867Z,100952.25
2022-09-05T11:06:42.779Z,100949.81
2022-09-05T11:08:21.911Z,100945.22
2022-09-05T11:09:57.069Z,100945.50
2022-09-05T11:11:26.018Z,100940.19
2022-09-05T11:12:57.959Z,100947.81
2022-09-05T11:14:12.150Z,100940.47
2022-09-05T11:16:10.268Z,100938.84
2022-09-05T11:17:29.737Z,100937.53
2022-09-05T11:18:57.113Z,100939.53
2022-09-05T11:20:35.310Z,100933.44
2022-09-05T11:22:22.050Z,100937.47
2022-09-05T11:23:57.629Z,100930.03
2022-09-05T11:25:05.377Z,100927.56
2022-09-05T11:26:34.052Z,100933.63
2022-09-05T11:27:41.088Z,100932.34
2022-09-05T11:29:00.754Z,100935.94
2022-09-05T11:30:30.980Z,100935.47
2022-09-05T11:34:12.808Z,100926.47
2022-09-05T11:39:46.769Z,100927.69
2022-09-05T11:39:59.173Z,100926.41
2022-09-05T11:40:05.888Z,100930.81
2022-09-05T11:40:10.267Z,100925.66
2022-09-05T11:40:35.371Z,100929.53
2022-09-05T11:42:01.822Z,100927.03
2022-09-05T11:43:48.975Z,100936.75
2022-09-05T11:45:12.031Z,100928.59
2022-09-05T11:46:38.807Z,100928.16
2022-09-05T11:48:18.606Z,100926.50
2022-09-05T11:49:59.431Z,100917.88
2022-09-05T11:51:33.355Z,100931.63
2022-09-05T11:52:55.190Z,100925.06
2022-09-05T11:54:20.026Z,100926.59
2022-09-05T11:55:34.889Z,100933.84
2022-09-05T11:57:32.459Z,100924.34
2022-09-05T11:59:13.840Z,100925.84
2022-09-05T12:00:33.041Z,100923.38
2022-09-05T12:02:16.909Z,100928.09
2022-09-05T12:04:00.022Z,100928.38
2022-09-05T12:05:49.031Z,100925.91
2022-09-05T12:07:27.036Z,100918.84
2022-09-05T12:08:39.913Z,100918.41
2022-09-05T12:10:00.794Z,100925.16
2022-09-05T12:11:14.406Z,100921.41
2022-09-05T12:12:38.997Z,100920.50
2022-09-05T12:13:48.859Z,100913.53
2022-09-05T12:15:24.122Z,100915.44
2022-09-05T12:16:45.150Z,100915.72
2022-09-05T12:18:12.612Z,100915.16
2022-09-05T12:19:40.396Z,100917.50
2022-09-05T12:21:01.064Z,100921.88
2022-09-05T12:24:24.839Z,100917.38
2022-09-05T12:27:40.842Z,100914.09
2022-09-05T12:29:34.039Z,100899.81
2022-09-05T12:30:16.074Z,100896.97
2022-09-05T12:32:49.478Z,100902.66
2022-09-05T12:36:02.466Z,100899.09
2022-09-05T12:36:11.793Z,100894.25
2022-09-05T12:40:18.406Z,100888.00
2022-09-05T12:40:38.425Z,100899.81
2022-09-05T12:40:56.402Z,100896.06
2022-09-05T12:41:41.391Z,100911.72
2022-09-05T12:41:41.715Z,100910.06
2022-09-05T12:41:43.319Z,100891.56
2022-09-05T12:43:39.693Z,100894.78
2022-09-05T12:44:41.328Z,100882.97
2022-09-05T12:45:50.441Z,100883.31
2022-09-05T12:47:18.645Z,100885.78
2022-09-05T12:48:39.303Z,100891.00
2022-09-05T12:50:15.283Z,100898.22
2022-09-05T12:51:46.039Z,100887.97
2022-09-05T12:52:56.061Z,100889.16
2022-09-05T12:54:27.864Z,100886.19
2022-09-05T12:55:41.351Z,100890.69
2022-09-05T12:58:09.039Z,100886.19
2022-09-05T13:03:01.482Z,100889.88
2022-09-05T13:03:05.380Z,100885.38
2022-09-05T13:03:05.715Z,100891.88
2022-09-05T13:03:11.271Z,100890.25
2022-09-05T13:04:31.104Z,100884.22
2022-09-05T13:06:24.969Z,100891.88
2022-09-05T13:07:50.679Z,100888.22
2022-09-05T13:09:00.821Z,100882.56
2022-09-05T13:14:49.000Z,100883.72
2022-09-05T13:14:53.293Z,100890.56
2022-09-05T13:14:59.360Z,100892.47
2022-09-05T13:15:22.688Z,100890.03
2022-09-05T13:17:05.698Z,100882.25
2022-09-05T13:18:16.925Z,100887.06
2022-09-05T13:19:30.329Z,100881.41
2022-09-05T13:20:51.833Z,100878.13
2022-09-05T13:21:55.647Z,100880.47
2022-09-05T13:23:03.523Z,100887.44
2022-09-05T13:24:12.315Z,100876.84
2022-09-05T13:25:25.477Z,100875.19
2022-09-05T13:26:44.455Z,100878.00
2022-09-05T13:27:56.883Z,100878.38
2022-09-05T13:29:12.023Z,100878.38
2022-09-05T13:35:27.126Z,100877.19
2022-09-05T13:38:00.412Z,100883.94
2022-09-05T13:38:04.233Z,100875.53
2022-09-05T13:38:04.485Z,100879.19
2022-09-05T13:38:11.032Z,100873.88
2022-09-05T13:38:14.608Z,100875.44
2022-09-05T13:39:11.652Z,100874.63
2022-09-05T13:40:23.498Z,100881.47
2022-09-05T13:41:59.622Z,100880.94
2022-09-05T13:43:28.186Z,100884.97
2022-09-05T13:44:37.604Z,100878.84
2022-09-05T13:46:17.342Z,100884.03
2022-09-05T13:47:51.071Z,100886.41
2022-09-05T13:49:29.339Z,100879.09
2022-09-05T13:50:43.895Z,100878.16
2022-09-05T13:51:54.025Z,100892.69
2022-09-05T13:53:02.465Z,100885.38
2022-09-05T13:54:38.579Z,100897.06
2022-09-05T13:55:54.183Z,100876.75
2022-09-05T13:57:16.482Z,100882.31
2022-09-05T13:58:40.045Z,100877.00
2022-09-05T14:00:03.464Z,100882.66
2022-09-05T14:01:25.430Z,100880.19
2022-09-05T14:05:05.803Z,100875.72
2022-09-05T14:06:45.040Z,100872.31
2022-09-05T14:08:18.143Z,100867.00
2022-09-05T14:09:39.921Z,100864.19
2022-09-05T14:10:57.893Z,100866.16
2022-09-05T14:12:06.104Z,100861.34
2022-09-05T14:13:24.286Z,100872.56
2022-09-05T14:16:14.783Z,100858.41
2022-09-05T14:19:03.036Z,100856.00
2022-09-05T14:20:28.618Z,100852.50
2022-09-05T14:21:36.859Z,100853.31
2022-09-05T14:22:55.488Z,100860.63
2022-09-05T14:24:27.518Z,100866.28
2022-09-05T14:25:38.897Z,100855.31
2022-09-05T14:26:47.955Z,100858.16
2022-09-05T14:27:51.236Z,100856.13
2022-09-05T14:29:14.445Z,100854.47
2022-09-05T14:32:00.965Z,100850.84
2022-09-05T14:36:09.363Z,100855.31
2022-09-05T14:37:40.801Z,100849.28
2022-09-05T14:37:50.881Z,100853.31
2022-09-05T14:37:52.110Z,100854.16
2022-09-05T14:39:31.534Z,100848.81
2022-09-05T14:41:11.306Z,100849.66
2022-09-05T14:42:24.061Z,100849.66
2022-09-05T14:43:47.988Z,100854.84
2022-09-05T14:45:02.122Z,100854.47
2022-09-05T14:46:29.117Z,100842.69
2022-09-05T14:48:14.268Z,100848.38
2022-09-05T14:49:37.701Z,100848.38
2022-09-05T14:51:08.260Z,100854.38
2022-09-05T14:52:19.323Z,100843.88
2022-09-05T14:56:39.908Z,100836.56
2022-09-05T15:02:45.297Z,100838.94
2022-09-05T15:02:45.893Z,100842.09
2022-09-05T15:02:51.033Z,100833.53
2022-09-05T15:02:57.667Z,100829.03
2022-09-05T15:05:13.978Z,100825.63
2022-09-05T15:06:21.517Z,100831.63
2022-09-05T15:07:53.614Z,100820.56
2022-09-05T15:11:29.550Z,100833.41
2022-09-05T15:12:24.881Z,100828.44
2022-09-05T15:12:31.245Z,100824.31
2022-09-05T15:13:44.433Z,100822.28
2022-09-05T15:15:18.213Z,100823.38
2022-09-05T15:16:24.390Z,100834.69
2022-09-05T15:17:28.517Z,100826.56
2022-09-05T15:18:36.872Z,100828.09
2022-09-05T15:20:05.645Z,100833.28
2022-09-05T15:21:33.602Z,100832.81
2022-09-05T15:22:41.975Z,100829.03
2022-09-05T15:23:57.988Z,100828.09
2022-09-05T15:25:16.924Z,100831.66
2022-09-05T15:26:25.581Z,100835.16
2022-09-05T15:27:31.198Z,100829.41
2022-09-05T15:28:43.032Z,100825.28
2022-09-05T15:29:54.706Z,100825.97
2022-09-05T15:31:01.066Z,100824.34
2022-09-05T15:32:22.683Z,100827.84
2022-09-05T15:33:28.792Z,100829.03
2022-09-05T15:34:33.011Z,100829.38
2022-09-05T15:35:44.071Z,100823.28
2022-09-05T15:36:48.653Z,100828.94
2022-09-05T15:37:50.977Z,100826.09
2022-09-05T15:38:54.781Z,100827.63
2022-09-05T15:40:03.685Z,100830.47
2022-09-05T15:41:23.794Z,100831.50
2022-09-05T15:42:31.320Z,100834.19
2022-09-05T15:43:51.963Z,100828.88
2022-09-05T15:45:16.778Z,100829.22
2022-09-05T15:46:59.803Z,100825.09
2022-09-05T15:48:24.099Z,100832.28
2022-09-05T15:49:34.797Z,100828.97
2022-09-05T15:50:42.016Z,100832.50
2022-09-05T15:51:44.673Z,100828.88
2022-09-05T15:52:55.269Z,100835.34
2022-09-05T15:53:58.631Z,100836.84
2022-09-05T15:55:10.933Z,100830.25
2022-09-05T15:56:17.530Z,100828.16
2022-09-05T15:57:28.973Z,100826.13
2022-09-05T15:58:54.066Z,100841.06
2022-09-05T16:00:00.375Z,100840.63
2022-09-05T16:01:12.987Z,100833.31
2022-09-05T16:02:50.096Z,100828.69
2022-09-05T16:10:26.744Z,100833.88
2022-09-05T16:10:30.223Z,100833.41
2022-09-05T16:10:34.371Z,100838.59
2022-09-05T16:10:34.563Z,100842.94
2022-09-05T16:10:59.403Z,100837.75
2022-09-05T16:12:08.859Z,100838.44
2022-09-05T16:13:14.035Z,100851.75
2022-09-05T16:14:49.932Z,100847.97
2022-09-05T16:21:21.984Z,100846.66
2022-09-05T16:23:14.208Z,100847.38
2022-09-05T16:23:14.246Z,100853.50
2022-09-05T16:23:23.852Z,100858.88